sensor_id;sensor_type;location;lat;lon;timestamp;pressure;altitude;pressure_sealevel;temperature;humidity
22775;BME280;11554;51.106;3.684;2024-03-08T00:00:00;101555.95;;;3.87;100.0
22775;BME280;11554;51.106;3.684;2024-03-08T00:05:00;101551.62;;;3.79;100.0
22775;BME280;11554;51.106;3.684;2024-03-08T00:10:00;101556.94;;;3.73;100.0
22775;BME280;11554;51.106;3.684;2024-03-08T00:15:00;101550.37999999999;;;3.76;100.0
22775;BME280;11554;51.106;3.684;2024-03-08T00:20:00;101546.22;;;3.72;100.0
22775;BME280;11554;51.106;3.684;2024-03-08T00:25:00;101548.94;;;3.60;100.0
22775;BME280;11554;51.106;3.684;2024-03-08T00:30:00;101545.26;;;3.58;100.0
22775;BME280;11554;51.106;3.684;2024-03-08T00:35:00;101541.47;;;3.58;100.0
22775;BME280;11554;51.106;3.684;2024-03-08T00:40:00;101536.36;;;3.52;100.0
22775;BME280;11554;51.106;3.684;2024-03-08T00:45:00;101532.56999999999;;;3.52;100.0
22775;BME280;11554;51.106;3.684;2024-03-08T00:50:00;101528.52;;;3.42;100.0
22775;BME280;11554;51.106;3.684;2024-03-08T00:55:00;101527.19;;;3.43;100.0
22775;BME280;11554;51.106;3.684;2024-03-08T01:00:02;101517.72;;;3.39;100.0
22775;BME280;11554;51.106;3.684;2024-03-08T01:05:00;101512.78;;;3.45;100.0
22775;BME280;11554;51.106;3.684;2024-03-08T01:10:00;101511.95999999999;;;3.40;100.0
22775;BME280;11554;51.106;3.684;2024-03-08T01:15:00;101507.48;;;3.34;100.0
22775;BME280;11554;51.106;3.684;2024-03-08T01:20:00;101496.06;;;3.27;100.0
22775;BME280;11554;51.106;3.684;2024-03-08T01:25:00;101499.15999999999;;;3.26;100.0
22775;BME280;11554;51.106;3.684;2024-03-08T01:30:00;101494.04;;;3.28;100.0
22775;BME280;11554;51.106;3.684;2024-03-08T01:35:00;101486.67;;;3.22;100.0
22775;BME280;11554;51.106;3.684;2024-03-08T01:40:00;101485.79999999999;;;3.25;100.0
22775;BME280;11554;51.106;3.684;2024-03-08T01:45:00;101481.73000000001;;;3.24;100.0
22775;BME280;11554;51.106;3.684;2024-03-08T01:50:00;101472.86;;;3.24;100.0
22775;BME280;11554;51.106;3.684;2024-03-08T01:55:00;101465.31;;;3.20;100.0
22775;BME280;11554;51.106;3.684;2024-03-08T02:00:00;101459.65;;;3.08;100.0
22775;BME280;11554;51.106;3.684;2024-03-08T02:05:00;101455.59;;;3.12;100.0
22775;BME280;11554;51.106;3.684;2024-03-08T02:10:00;101454.40999999999;;;3.03;100.0
22775;BME280;11554;51.106;3.684;2024-03-08T02:15:00;101446.87;;;3.05;100.0
22775;BME280;11554;51.106;3.684;2024-03-08T02:20:00;101435.38;;;3.06;100.0
22775;BME280;11554;51.106;3.684;2024-03-08T02:25:00;101424.08;;;2.99;100.0
22775;BME280;11554;51.106;3.684;2024-03-08T02:30:00;101413.42;;;2.92;100.0
22775;BME280;11554;51.106;3.684;2024-03-08T02:35:00;101405.08;;;2.84;100.0
22775;BME280;11554;51.106;3.684;2024-03-08T02:40:00;101401.45;;;2.79;100.0
22775;BME280;11554;51.106;3.684;2024-03-08T02:45:00;101394.2;;;2.74;100.0
22775;BME280;11554;51.106;3.684;2024-03-08T02:50:00;101384.23;;;2.78;100.0
22775;BME280;11554;51.106;3.684;2024-03-08T02:55:00;101374.59999999999;;;2.74;100.0
22775;BME280;11554;51.106;3.684;2024-03-08T03:00:00;101380.19;;;2.69;100.0
22775;BME280;11554;51.106;3.684;2024-03-08T03:05:00;101375.01999999999;;;2.62;100.0
22775;BME280;11554;51.106;3.684;2024-03-08T03:10:00;101367.98999999999;;;2.60;100.0
22775;BME280;11554;51.106;3.684;2024-03-08T03:15:00;101365.09999999999;;;2.59;100.0
22775;BME280;11554;51.106;3.684;2024-03-08T03:20:00;101355.98999999999;;;2.54;100.0
22775;BME280;11554;51.106;3.684;2024-03-08T03:25:00;101351.65;;;2.46;100.0
22775;BME280;11554;51.106;3.684;2024-03-08T03:30:00;101344.78;;;2.46;100.0
22775;BME280;11554;51.106;3.684;2024-03-08T03:35:00;101340.41;;;2.38;100.0
22775;BME280;11554;51.106;3.684;2024-03-08T03:40:00;101333.48;;;2.34;100.0
22775;BME280;11554;51.106;3.684;2024-03-08T03:45:00;101330.9;;;2.39;100.0
22775;BME280;11554;51.106;3.684;2024-03-08T03:50:00;101326.19;;;2.30;100.0
22775;BME280;11554;51.106;3.684;2024-03-08T03:55:00;101321.51;;;2.24;100.0
22775;BME280;11554;51.106;3.684;2024-03-08T04:00:00;101313.72;;;2.22;100.0
22775;BME280;11554;51.106;3.684;2024-03-08T04:05:00;101309.84;;;2.11;100.0
22775;BME280;11554;51.106;3.684;2024-03-08T04:10:00;101307.39;;;2.14;100.0
22775;BME280;11554;51.106;3.684;2024-03-08T04:15:00;101305.02;;;2.11;100.0
22775;BME280;11554;51.106;3.684;2024-03-08T04:20:00;101302.69;;;2.16;100.0
22775;BME280;11554;51.106;3.684;2024-03-08T04:25:00;101293.76999999999;;;2.16;100.0
22775;BME280;11554;51.106;3.684;2024-03-08T04:30:00;101297.33;;;2.13;100.0
22775;BME280;11554;51.106;3.684;2024-03-08T04:35:00;101291.01000000001;;;2.09;100.0
22775;BME280;11554;51.106;3.684;2024-03-08T04:40:00;101282.84;;;2.15;100.0
22775;BME280;11554;51.106;3.684;2024-03-08T04:45:00;101276.65;;;2.11;100.0
22775;BME280;11554;51.106;3.684;2024-03-08T04:50:00;101274.78;;;2.10;100.0
22775;BME280;11554;51.106;3.684;2024-03-08T04:55:00;101271.27;;;1.97;100.0
22775;BME280;11554;51.106;3.684;2024-03-08T05:00:00;101269.56;;;1.99;100.0
22775;BME280;11554;51.106;3.684;2024-03-08T05:05:00;101257.22;;;2.01;100.0
22775;BME280;11554;51.106;3.684;2024-03-08T05:10:00;101259.75;;;1.95;100.0
22775;BME280;11554;51.106;3.684;2024-03-08T05:15:00;101257.14;;;1.92;100.0
22775;BME280;11554;51.106;3.684;2024-03-08T05:20:00;101254.6;;;1.90;100.0
22775;BME280;11554;51.106;3.684;2024-03-08T05:25:00;101251.37;;;1.83;100.0
22775;BME280;11554;51.106;3.684;2024-03-08T05:30:00;101256.92;;;1.72;100.0
22775;BME280;11554;51.106;3.684;2024-03-08T05:35:00;101260.42;;;1.75;100.0
22775;BME280;11554;51.106;3.684;2024-03-08T05:40:00;101254.47;;;1.69;100.0
22775;BME280;11554;51.106;3.684;2024-03-08T05:45:00;101248.01999999999;;;1.70;100.0
22775;BME280;11554;51.106;3.684;2024-03-08T05:50:00;101245.79;;;1.68;100.0
22775;BME280;11554;51.106;3.684;2024-03-08T05:55:00;101247.2;;;1.63;100.0
22775;BME280;11554;51.106;3.684;2024-03-08T06:00:00;101238.11;;;1.57;100.0
22775;BME280;11554;51.106;3.684;2024-03-08T06:05:00;101234.84999999999;;;1.54;100.0
22775;BME280;11554;51.106;3.684;2024-03-08T06:10:00;101231.8;;;1.51;100.0
22775;BME280;11554;51.106;3.684;2024-03-08T06:15:00;101228.02;;;1.50;100.0
22775;BME280;11554;51.106;3.684;2024-03-08T06:20:00;101223.19;;;1.54;100.0
22775;BME280;11554;51.106;3.684;2024-03-08T06:25:00;101220.11;;;1.56;100.0
22775;BME280;11554;51.106;3.684;2024-03-08T06:30:00;101214.79000000001;;;1.58;100.0
22775;BME280;11554;51.106;3.684;2024-03-08T06:35:00;101210.11;;;1.64;100.0
22775;BME280;11554;51.106;3.684;2024-03-08T06:40:00;101202.12;;;1.68;100.0
22775;BME280;11554;51.106;3.684;2024-03-08T06:45:00;101194.17;;;1.73;100.0
22775;BME280;11554;51.106;3.684;2024-03-08T06:50:00;101186.3;;;1.71;100.0
22775;BME280;11554;51.106;3.684;2024-03-08T06:55:00;101179.45999999999;;;1.76;100.0
22775;BME280;11554;51.106;3.684;2024-03-08T07:00:00;101170.26;;;1.83;100.0
22775;BME280;11554;51.106;3.684;2024-03-08T07:05:00;101162.45;;;1.91;100.0
22775;BME280;11554;51.106;3.684;2024-03-08T07:10:00;101161.56;;;2.02;100.0
22775;BME280;11554;51.106;3.684;2024-03-08T07:15:00;101154.4;;;2.09;100.0
22775;BME280;11554;51.106;3.684;2024-03-08T07:20:00;101156.87000000001;;;2.16;100.0
22775;BME280;11554;51.106;3.684;2024-03-08T07:25:00;101161.44;;;2.26;100.0
22775;BME280;11554;51.106;3.684;2024-03-08T07:30:00;101159.99;;;2.44;100.0
22775;BME280;11554;51.106;3.684;2024-03-08T07:35:01;101154.78;;;2.58;100.0
22775;BME280;11554;51.106;3.684;2024-03-08T07:40:00;101145.1;;;2.73;100.0
22775;BME280;11554;51.106;3.684;2024-03-08T07:45:00;101141.3;;;2.90;100.0
22775;BME280;11554;51.106;3.684;2024-03-08T07:50:01;101141.67;;;3.08;100.0
22775;BME280;11554;51.106;3.684;2024-03-08T07:55:00;101133.01;;;3.30;100.0
22775;BME280;11554;51.106;3.684;2024-03-08T08:00:00;101135.82;;;3.45;100.0
22775;BME280;11554;51.106;3.684;2024-03-08T08:05:00;101131.31;;;3.52;100.0
22775;BME280;11554;51.106;3.684;2024-03-08T08:10:00;101136.97;;;3.72;100.0
22775;BME280;11554;51.106;3.684;2024-03-08T08:15:00;101120.61;;;3.82;100.0
22775;BME280;11554;51.106;3.684;2024-03-08T08:20:00;101105.44;;;3.92;100.0
22775;BME280;11554;51.106;3.684;2024-03-08T08:25:00;101093.1;;;4.06;100.0
22775;BME280;11554;51.106;3.684;2024-03-08T08:30:00;101080.95;;;4.19;100.0
22775;BME280;11554;51.106;3.684;2024-03-08T08:35:00;101074.73;;;4.36;100.0
22775;BME280;11554;51.106;3.684;2024-03-08T08:40:00;101068.24;;;4.45;100.0
22775;BME280;11554;51.106;3.684;2024-03-08T08:45:00;101061.33;;;4.62;100.0
22775;BME280;11554;51.106;3.684;2024-03-08T08:50:00;101052.23;;;4.71;100.0
22775;BME280;11554;51.106;3.684;2024-03-08T08:55:00;101047.47;;;4.83;100.0
22775;BME280;11554;51.106;3.684;2024-03-08T09:00:00;101041.36;;;5.11;100.0
22775;BME280;11554;51.106;3.684;2024-03-08T09:05:00;101036.0;;;5.35;100.0
22775;BME280;11554;51.106;3.684;2024-03-08T09:10:00;101030.11;;;5.52;100.0
22775;BME280;11554;51.106;3.684;2024-03-08T09:15:00;101017.76999999999;;;5.63;100.0
22775;BME280;11554;51.106;3.684;2024-03-08T09:20:00;101013.59;;;5.80;100.0
22775;BME280;11554;51.106;3.684;2024-03-08T09:25:00;100995.2;;;6.05;100.0
22775;BME280;11554;51.106;3.684;2024-03-08T09:30:00;100985.0;;;6.02;100.0
22775;BME280;11554;51.106;3.684;2024-03-08T09:35:00;100983.67;;;6.16;100.0
22775;BME280;11554;51.106;3.684;2024-03-08T09:40:00;100980.95;;;6.25;100.0
22775;BME280;11554;51.106;3.684;2024-03-08T09:45:00;100966.88;;;6.46;100.0
22775;BME280;11554;51.106;3.684;2024-03-08T09:50:00;100951.06;;;6.74;100.0
22775;BME280;11554;51.106;3.684;2024-03-08T09:55:00;100943.62999999999;;;6.92;100.0
22775;BME280;11554;51.106;3.684;2024-03-08T10:00:00;100950.12000000001;;;6.97;100.0
22775;BME280;11554;51.106;3.684;2024-03-08T10:05:00;100935.36;;;6.99;100.0
22775;BME280;11554;51.106;3.684;2024-03-08T10:10:00;100922.0;;;7.19;100.0
22775;BME280;11554;51.106;3.684;2024-03-08T10:15:00;100915.89;;;7.69;100.0
22775;BME280;11554;51.106;3.684;2024-03-08T10:20:00;100905.81;;;7.68;100.0
22775;BME280;11554;51.106;3.684;2024-03-08T10:25:00;100893.89;;;8.02;100.0
22775;BME280;11554;51.106;3.684;2024-03-08T10:30:00;100883.36;;;7.94;100.0
22775;BME280;11554;51.106;3.684;2024-03-08T10:35:00;100883.56999999999;;;8.43;100.0
22775;BME280;11554;51.106;3.684;2024-03-08T10:40:02;100873.6;;;8.16;100.0
22775;BME280;11554;51.106;3.684;2024-03-08T10:45:02;100862.45;;;8.38;100.0
22775;BME280;11554;51.106;3.684;2024-03-08T10:50:03;100857.14;;;8.47;100.0
22775;BME280;11554;51.106;3.684;2024-03-08T10:55:00;100833.34;;;8.55;100.0
22775;BME280;11554;51.106;3.684;2024-03-08T11:00:00;100832.39;;;8.91;100.0
22775;BME280;11554;51.106;3.684;2024-03-08T11:05:00;100835.25;;;9.17;100.0
22775;BME280;11554;51.106;3.684;2024-03-08T11:10:02;100838.17;;;9.34;100.0
22775;BME280;11554;51.106;3.684;2024-03-08T11:15:01;100830.40999999999;;;9.14;100.0
22775;BME280;11554;51.106;3.684;2024-03-08T11:20:00;100824.05;;;9.42;100.0
22775;BME280;11554;51.106;3.684;2024-03-08T11:25:01;100808.51;;;9.87;100.0
22775;BME280;11554;51.106;3.684;2024-03-08T11:30:00;100798.43;;;10.01;100.0
22775;BME280;11554;51.106;3.684;2024-03-08T11:35:00;100796.48;;;10.10;100.0
22775;BME280;11554;51.106;3.684;2024-03-08T11:40:00;100789.54;;;10.42;100.0
22775;BME280;11554;51.106;3.684;2024-03-08T11:45:00;100789.22;;;10.45;100.0
22775;BME280;11554;51.106;3.684;2024-03-08T11:50:00;100782.11;;;10.33;100.0
22775;BME280;11554;51.106;3.684;2024-03-08T11:55:00;100764.78;;;10.61;100.0
22775;BME280;11554;51.106;3.684;2024-03-08T12:00:00;100744.12;;;10.91;100.0
22775;BME280;11554;51.106;3.684;2024-03-08T12:05:01;100731.3;;;10.92;98.76
22775;BME280;11554;51.106;3.684;2024-03-08T12:15:00;100729.47;;;10.69;100.0
22775;BME280;11554;51.106;3.684;2024-03-08T12:20:10;100721.20999999999;;;10.87;100.0
22775;BME280;11554;51.106;3.684;2024-03-08T12:25:03;100715.22;;;11.16;100.0
22775;BME280;11554;51.106;3.684;2024-03-08T12:35:00;100696.64;;;11.30;93.97
22775;BME280;11554;51.106;3.684;2024-03-08T12:40:00;100697.99;;;11.47;100.0
22775;BME280;11554;51.106;3.684;2024-03-08T12:45:00;100678.77;;;11.35;95.16
22775;BME280;11554;51.106;3.684;2024-03-08T12:50:00;100680.38;;;11.75;95.59
22775;BME280;11554;51.106;3.684;2024-03-08T12:55:00;100670.92;;;11.56;96.62
22775;BME280;11554;51.106;3.684;2024-03-08T13:00:00;100661.13;;;11.58;94.25
22775;BME280;11554;51.106;3.684;2024-03-08T13:05:00;100652.75;;;11.69;87.66
22775;BME280;11554;51.106;3.684;2024-03-08T13:10:00;100638.75;;;11.75;91.47
22775;BME280;11554;51.106;3.684;2024-03-08T13:15:00;100629.83;;;12.04;93.77
22775;BME280;11554;51.106;3.684;2024-03-08T13:20:00;100625.75;;;12.35;100.0
22775;BME280;11554;51.106;3.684;2024-03-08T13:25:00;100614.17;;;12.69;86.27
22775;BME280;11554;51.106;3.684;2024-03-08T13:30:00;100607.56999999999;;;12.30;84.54
22775;BME280;11554;51.106;3.684;2024-03-08T13:35:00;100592.4;;;12.56;88.62
22775;BME280;11554;51.106;3.684;2024-03-08T13:40:00;100583.51;;;12.38;81.49
22775;BME280;11554;51.106;3.684;2024-03-08T13:45:00;100581.68;;;12.83;84.41
22775;BME280;11554;51.106;3.684;2024-03-08T13:50:00;100565.84;;;12.68;82.72
22775;BME280;11554;51.106;3.684;2024-03-08T13:55:00;100564.37;;;12.52;75.41
22775;BME280;11554;51.106;3.684;2024-03-08T14:00:00;100557.89;;;12.29;81.96
22775;BME280;11554;51.106;3.684;2024-03-08T14:05:00;100546.14;;;12.37;77.89
22775;BME280;11554;51.106;3.684;2024-03-08T14:10:00;100531.56999999999;;;12.74;87.49
22775;BME280;11554;51.106;3.684;2024-03-08T14:15:00;100539.12;;;12.62;79.35
22775;BME280;11554;51.106;3.684;2024-03-08T14:20:00;100529.97;;;12.96;80.79
22775;BME280;11554;51.106;3.684;2024-03-08T14:25:00;100523.42;;;12.88;76.92
22775;BME280;11554;51.106;3.684;2024-03-08T14:30:00;100521.23;;;12.29;80.7
22775;BME280;11554;51.106;3.684;2024-03-08T14:35:00;100510.97;;;12.68;83.01
22775;BME280;11554;51.106;3.684;2024-03-08T14:40:00;100499.75;;;12.65;83.4
22775;BME280;11554;51.106;3.684;2024-03-08T14:45:00;100495.28;;;12.63;76.15
22775;BME280;11554;51.106;3.684;2024-03-08T14:50:00;100492.17;;;12.58;78.02
22775;BME280;11554;51.106;3.684;2024-03-08T14:55:00;100482.1;;;12.57;78.49
22775;BME280;11554;51.106;3.684;2024-03-08T15:00:00;100477.23999999999;;;12.20;80.6
22775;BME280;11554;51.106;3.684;2024-03-08T15:05:00;100465.68;;;12.52;90.97
22775;BME280;11554;51.106;3.684;2024-03-08T15:10:00;100457.19;;;12.51;80.41
22775;BME280;11554;51.106;3.684;2024-03-08T15:15:00;100450.75;;;12.28;84.21
22775;BME280;11554;51.106;3.684;2024-03-08T15:20:00;100454.26999999999;;;11.95;82.91
22775;BME280;11554;51.106;3.684;2024-03-08T15:25:00;100443.73000000001;;;11.87;88.37
22775;BME280;11554;51.106;3.684;2024-03-08T15:30:00;100441.78;;;11.94;88.84
22775;BME280;11554;51.106;3.684;2024-03-08T15:35:00;100430.90999999999;;;11.97;91.6
22775;BME280;11554;51.106;3.684;2024-03-08T15:40:00;100424.39;;;11.92;87.59
22775;BME280;11554;51.106;3.684;2024-03-08T15:45:00;100420.06;;;11.87;91.32
22775;BME280;11554;51.106;3.684;2024-03-08T15:50:00;100411.42;;;11.87;94.31
22775;BME280;11554;51.106;3.684;2024-03-08T15:55:00;100416.52;;;11.66;91.97
22775;BME280;11554;51.106;3.684;2024-03-08T16:00:00;100420.24;;;11.50;97.6
22775;BME280;11554;51.106;3.684;2024-03-08T16:05:00;100409.81;;;11.38;100.0
22775;BME280;11554;51.106;3.684;2024-03-08T16:10:00;100411.06;;;11.30;100.0
22775;BME280;11554;51.106;3.684;2024-03-08T16:15:00;100407.09000000001;;;11.30;100.0
22775;BME280;11554;51.106;3.684;2024-03-08T16:20:00;100405.12999999999;;;11.07;100.0
22775;BME280;11554;51.106;3.684;2024-03-08T16:25:00;100404.12;;;10.93;100.0
22775;BME280;11554;51.106;3.684;2024-03-08T16:30:00;100398.8;;;10.78;100.0
22775;BME280;11554;51.106;3.684;2024-03-08T16:35:00;100395.03;;;10.68;100.0
22775;BME280;11554;51.106;3.684;2024-03-08T16:40:00;100392.46;;;10.57;100.0
22775;BME280;11554;51.106;3.684;2024-03-08T16:45:00;100389.47;;;10.40;100.0
22775;BME280;11554;51.106;3.684;2024-03-08T16:50:00;100382.44;;;10.21;100.0
22775;BME280;11554;51.106;3.684;2024-03-08T16:55:00;100386.1;;;10.03;100.0
22775;BME280;11554;51.106;3.684;2024-03-08T17:00:00;100391.04999999999;;;9.89;100.0
22775;BME280;11554;51.106;3.684;2024-03-08T17:05:00;100390.39;;;9.80;100.0
22775;BME280;11554;51.106;3.684;2024-03-08T17:10:00;100384.86;;;9.74;100.0
22775;BME280;11554;51.106;3.684;2024-03-08T17:15:00;100381.87000000001;;;9.71;100.0
22775;BME280;11554;51.106;3.684;2024-03-08T17:20:00;100377.55;;;9.59;100.0
22775;BME280;11554;51.106;3.684;2024-03-08T17:25:00;100374.99;;;9.35;100.0
22775;BME280;11554;51.106;3.684;2024-03-08T17:30:00;100375.86;;;9.24;100.0
22775;BME280;11554;51.106;3.684;2024-03-08T17:35:00;100380.31;;;9.12;100.0
22775;BME280;11554;51.106;3.684;2024-03-08T17:40:00;100372.66;;;9.05;100.0
22775;BME280;11554;51.106;3.684;2024-03-08T17:45:00;100376.85;;;8.87;100.0
22775;BME280;11554;51.106;3.684;2024-03-08T17:50:00;100377.64;;;8.67;100.0
22775;BME280;11554;51.106;3.684;2024-03-08T17:55:00;100371.78;;;8.66;100.0
22775;BME280;11554;51.106;3.684;2024-03-08T18:00:00;100373.99;;;8.62;100.0
22775;BME280;11554;51.106;3.684;2024-03-08T18:05:00;100380.08;;;8.55;100.0
22775;BME280;11554;51.106;3.684;2024-03-08T18:10:00;100377.36;;;8.47;100.0
22775;BME280;11554;51.106;3.684;2024-03-08T18:15:00;100375.06;;;8.43;100.0
22775;BME280;11554;51.106;3.684;2024-03-08T18:20:00;100372.81;;;8.34;100.0
22775;BME280;11554;51.106;3.684;2024-03-08T18:25:00;100371.89;;;8.25;100.0
22775;BME280;11554;51.106;3.684;2024-03-08T18:30:00;100371.33;;;8.18;100.0
22775;BME280;11554;51.106;3.684;2024-03-08T18:35:00;100365.99;;;8.09;100.0
22775;BME280;11554;51.106;3.684;2024-03-08T18:40:00;100370.83;;;7.93;100.0
22775;BME280;11554;51.106;3.684;2024-03-08T18:45:00;100361.0;;;7.90;100.0
22775;BME280;11554;51.106;3.684;2024-03-08T18:50:01;100351.42;;;7.86;100.0
22775;BME280;11554;51.106;3.684;2024-03-08T18:55:00;100353.0;;;7.78;100.0
22775;BME280;11554;51.106;3.684;2024-03-08T19:00:00;100355.03;;;7.81;100.0
22775;BME280;11554;51.106;3.684;2024-03-08T19:05:00;100351.73;;;7.74;100.0
22775;BME280;11554;51.106;3.684;2024-03-08T19:10:00;100354.11;;;7.82;100.0
22775;BME280;11554;51.106;3.684;2024-03-08T19:15:00;100354.78;;;7.79;100.0
22775;BME280;11554;51.106;3.684;2024-03-08T19:20:00;100342.66;;;7.79;100.0
22775;BME280;11554;51.106;3.684;2024-03-08T19:25:00;100352.12;;;7.65;100.0
22775;BME280;11554;51.106;3.684;2024-03-08T19:30:00;100351.59;;;7.57;100.0
22775;BME280;11554;51.106;3.684;2024-03-08T19:35:00;100348.49;;;7.51;100.0
22775;BME280;11554;51.106;3.684;2024-03-08T19:40:00;100347.70999999999;;;7.51;100.0
22775;BME280;11554;51.106;3.684;2024-03-08T19:45:00;100341.31;;;7.46;100.0
22775;BME280;11554;51.106;3.684;2024-03-08T19:50:00;100346.17;;;7.53;100.0
22775;BME280;11554;51.106;3.684;2024-03-08T19:55:00;100348.11;;;7.49;100.0
22775;BME280;11554;51.106;3.684;2024-03-08T20:00:00;100339.9;;;7.61;100.0
22775;BME280;11554;51.106;3.684;2024-03-08T20:05:00;100347.33;;;7.77;100.0
22775;BME280;11554;51.106;3.684;2024-03-08T20:10:00;100346.81;;;7.84;100.0
22775;BME280;11554;51.106;3.684;2024-03-08T20:15:00;100347.40000000001;;;7.84;100.0
22775;BME280;11554;51.106;3.684;2024-03-08T20:20:00;100343.33;;;7.81;100.0
22775;BME280;11554;51.106;3.684;2024-03-08T20:25:00;100345.14;;;7.77;100.0
22775;BME280;11554;51.106;3.684;2024-03-08T20:30:00;100340.36;;;7.74;100.0
22775;BME280;11554;51.106;3.684;2024-03-08T20:35:00;100340.17;;;7.78;100.0
22775;BME280;11554;51.106;3.684;2024-03-08T20:40:00;100334.31;;;7.75;100.0
22775;BME280;11554;51.106;3.684;2024-03-08T20:45:00;100341.16;;;7.71;100.0
22775;BME280;11554;51.106;3.684;2024-03-08T20:50:00;100326.81;;;7.81;100.0
22775;BME280;11554;51.106;3.684;2024-03-08T20:55:00;100322.69;;;7.81;100.0
22775;BME280;11554;51.106;3.684;2024-03-08T21:00:00;100311.21;;;7.84;100.0
22775;BME280;11554;51.106;3.684;2024-03-08T21:05:00;100299.59999999999;;;7.81;100.0
22775;BME280;11554;51.106;3.684;2024-03-08T21:10:00;100302.09;;;7.87;100.0
22775;BME280;11554;51.106;3.684;2024-03-08T21:15:00;100299.97;;;7.87;100.0
22775;BME280;11554;51.106;3.684;2024-03-08T21:20:01;100299.87999999999;;;7.90;100.0
22775;BME280;11554;51.106;3.684;2024-03-08T21:25:00;100288.03;;;7.91;100.0
22775;BME280;11554;51.106;3.684;2024-03-08T21:30:00;100280.69;;;7.90;100.0
22775;BME280;11554;51.106;3.684;2024-03-08T21:35:00;100269.3;;;7.81;100.0
22775;BME280;11554;51.106;3.684;2024-03-08T21:40:00;100264.59;;;7.80;100.0
22775;BME280;11554;51.106;3.684;2024-03-08T21:45:02;100265.89;;;7.81;100.0
22775;BME280;11554;51.106;3.684;2024-03-08T21:50:00;100267.03;;;7.80;100.0
22775;BME280;11554;51.106;3.684;2024-03-08T21:55:00;100275.71;;;7.77;100.0
22775;BME280;11554;51.106;3.684;2024-03-08T22:00:00;100275.98000000001;;;7.72;100.0
22775;BME280;11554;51.106;3.684;2024-03-08T22:05:00;100268.78;;;7.70;100.0
22775;BME280;11554;51.106;3.684;2024-03-08T22:10:00;100264.33;;;7.77;100.0
22775;BME280;11554;51.106;3.684;2024-03-08T22:15:00;100262.05;;;7.77;100.0
22775;BME280;11554;51.106;3.684;2024-03-08T22:20:00;100259.14;;;7.72;100.0
22775;BME280;11554;51.106;3.684;2024-03-08T22:25:00;100255.81;;;7.70;100.0
22775;BME280;11554;51.106;3.684;2024-03-08T22:30:00;100257.54;;;7.69;100.0
22775;BME280;11554;51.106;3.684;2024-03-08T22:35:00;100254.24;;;7.66;100.0
22775;BME280;11554;51.106;3.684;2024-03-08T22:40:00;100252.91;;;7.67;100.0
22775;BME280;11554;51.106;3.684;2024-03-08T22:45:00;100251.45;;;7.63;100.0
22775;BME280;11554;51.106;3.684;2024-03-08T22:50:00;100247.68000000001;;;7.60;100.0
22775;BME280;11554;51.106;3.684;2024-03-08T22:55:00;100239.45;;;7.61;100.0
22775;BME280;11554;51.106;3.684;2024-03-08T23:00:00;100235.41;;;7.62;100.0
22775;BME280;11554;51.106;3.684;2024-03-08T23:05:00;100238.79;;;7.62;100.0
22775;BME280;11554;51.106;3.684;2024-03-08T23:10:00;100233.54000000001;;;7.55;100.0
22775;BME280;11554;51.106;3.684;2024-03-08T23:15:00;100226.44;;;7.52;100.0
22775;BME280;11554;51.106;3.684;2024-03-08T23:20:00;100225.44;;;7.50;100.0
22775;BME280;11554;51.106;3.684;2024-03-08T23:25:00;100221.66;;;7.49;100.0
22775;BME280;11554;51.106;3.684;2024-03-08T23:30:00;100227.75;;;7.46;100.0
22775;BME280;11554;51.106;3.684;2024-03-08T23:35:00;100221.42;;;7.46;100.0
22775;BME280;11554;51.106;3.684;2024-03-08T23:40:00;100213.2;;;7.45;100.0
22775;BME280;11554;51.106;3.684;2024-03-08T23:45:00;100214.03;;;7.44;100.0
22775;BME280;11554;51.106;3.684;2024-03-08T23:50:00;100217.67;;;7.44;100.0
22775;BME280;11554;51.106;3.684;2024-03-08T23:55:00;100221.15;;;7.39;100.0
